Time;durP1;ratioP1;P1;durP2;ratioP2;P2;SDS_P1;SDS_P2;PMS_P1;PMS_P2;Temp;Humidity;BMP_temperature;BMP_pressure;BME280_temperature;BME280_humidity;BME280_pressure;Samples;Min_cycle;Max_cycle;Signal;HPM_P1;HPM_P2
2022/11/22 00:01:22;;;;;;;23.90;15.43;;;;;;;2.73;100.00;98229.00;5068966;28;20468;-77
2022/11/22 00:03:49;;;;;;;30.00;18.00;;;;;;;2.76;100.00;98217.31;5081927;28;20493;-76
2022/11/22 00:06:16;;;;;;;30.23;17.70;;;;;;;2.91;100.00;98220.34;5086065;28;20475;-76
2022/11/22 00:08:43;;;;;;;26.83;16.47;;;;;;;2.77;100.00;98213.72;5077705;28;20504;-72
2022/11/22 00:11:12;;;;;;;22.90;16.10;;;;;;;2.80;100.00;98200.22;5100213;28;20479;-75
2022/11/22 00:13:39;;;;;;;20.43;15.17;;;;;;;2.79;100.00;98201.19;5101749;28;20459;-76
2022/11/22 00:16:05;;;;;;;27.33;15.60;;;;;;;2.78;100.00;98196.91;5100059;28;20484;-74
2022/11/22 00:18:33;;;;;;;24.53;16.60;;;;;;;2.80;100.00;98193.13;5101029;28;20495;-74
2022/11/22 00:21:05;;;;;;;24.93;15.90;;;;;;;2.87;100.00;98188.13;5099673;28;20502;-74
2022/11/22 00:23:31;;;;;;;24.43;16.03;;;;;;;2.91;100.00;98193.97;5071902;28;20463;-77
2022/11/22 00:25:58;;;;;;;22.63;16.57;;;;;;;2.90;100.00;98184.34;5090090;28;20559;-77
2022/11/22 00:28:25;;;;;;;23.20;16.03;;;;;;;2.99;100.00;98180.88;5086650;28;20471;-75
2022/11/22 00:30:52;;;;;;;20.57;14.80;;;;;;;2.91;100.00;98181.59;5099667;28;20483;-77
2022/11/22 00:33:18;;;;;;;21.60;13.80;;;;;;;2.98;100.00;98180.03;5085407;28;20448;-76
2022/11/22 00:35:46;;;;;;;20.90;14.17;;;;;;;3.09;100.00;98167.63;5088762;28;20471;-75
2022/11/22 00:38:13;;;;;;;19.43;15.37;;;;;;;3.00;100.00;98159.63;5102226;28;20486;-76
2022/11/22 00:40:40;;;;;;;21.43;14.60;;;;;;;3.04;100.00;98156.66;5099695;28;20516;-77
2022/11/22 00:43:07;;;;;;;25.10;15.50;;;;;;;2.88;100.00;98158.09;5100809;28;20507;-73
2022/11/22 00:45:34;;;;;;;20.70;15.50;;;;;;;2.87;100.00;98156.47;5099861;28;20478;-77
2022/11/22 00:48:00;;;;;;;26.07;16.10;;;;;;;2.86;100.00;98149.50;5083961;28;20465;-77
2022/11/22 00:50:27;;;;;;;19.77;14.97;;;;;;;2.90;100.00;98150.91;5080713;28;20492;-72
2022/11/22 00:52:55;;;;;;;28.97;16.57;;;;;;;2.88;100.00;98144.09;5083669;28;20882;-77
2022/11/22 00:55:21;;;;;;;22.10;16.00;;;;;;;2.78;100.00;98146.78;5097620;28;20480;-75
2022/11/22 00:57:48;;;;;;;24.43;15.00;;;;;;;2.83;100.00;98153.28;5082019;28;20449;-74
2022/11/22 01:00:16;;;;;;;20.90;15.33;;;;;;;2.82;100.00;98148.97;5086886;28;20519;-75
2022/11/22 01:02:42;;;;;;;24.20;15.87;;;;;;;2.92;100.00;98148.94;5101165;28;20434;-74
2022/11/22 01:05:09;;;;;;;22.97;15.40;;;;;;;2.79;100.00;98138.69;5100515;28;20459;-73
2022/11/22 01:07:36;;;;;;;21.40;16.70;;;;;;;2.88;100.00;98130.91;5101844;28;20499;-76
2022/11/22 01:10:04;;;;;;;17.87;14.27;;;;;;;2.93;100.00;98131.28;5090093;28;20490;-76
2022/11/22 01:12:31;;;;;;;24.97;16.47;;;;;;;2.88;100.00;98123.78;5083669;28;20475;-74
2022/11/22 01:14:58;;;;;;;21.60;15.13;;;;;;;2.96;100.00;98121.28;5096897;28;20478;-73
2022/11/22 01:17:24;;;;;;;29.17;14.87;;;;;;;2.98;100.00;98127.25;5091419;28;20583;-74
2022/11/22 01:19:51;;;;;;;26.70;16.20;;;;;;;2.94;100.00;98110.03;5099866;28;20937;-74
2022/11/22 01:22:17;;;;;;;27.30;16.03;;;;;;;2.97;100.00;98099.19;5100908;28;20487;-75
2022/11/22 01:24:44;;;;;;;20.40;15.17;;;;;;;2.98;100.00;98108.75;5097021;28;20450;-74
2022/11/22 01:27:12;;;;;;;23.00;15.80;;;;;;;3.04;100.00;98109.16;5095636;28;20476;-71
2022/11/22 01:29:39;;;;;;;20.20;14.93;;;;;;;2.98;100.00;98110.56;5083379;28;20492;-73
2022/11/22 01:32:05;;;;;;;23.67;16.37;;;;;;;3.11;100.00;98111.09;5082999;28;20575;-74
2022/11/22 01:34:32;;;;;;;24.60;16.30;;;;;;;3.14;100.00;98115.22;5093954;28;20482;-74
2022/11/22 01:36:59;;;;;;;21.30;15.63;;;;;;;3.16;100.00;98097.44;5067629;28;20480;-76
2022/11/22 01:39:25;;;;;;;17.73;14.03;;;;;;;3.15;100.00;98085.22;5084669;28;20576;-77
2022/11/22 01:41:52;;;;;;;23.47;15.57;;;;;;;3.10;100.00;98080.38;5085482;28;20479;-72
2022/11/22 01:44:25;;;;;;;25.13;16.30;;;;;;;3.09;100.00;98086.66;5083706;28;20456;-74
2022/11/22 01:46:53;;;;;;;20.43;14.13;;;;;;;3.17;100.00;98085.91;5084275;28;20502;-75
2022/11/22 01:49:26;;;;;;;19.13;14.77;;;;;;;3.14;100.00;98088.81;5084513;28;20480;-75
2022/11/22 01:51:56;;;;;;;21.57;14.20;;;;;;;3.18;100.00;98098.97;5088348;28;20479;-72
2022/11/22 01:54:24;;;;;;;22.40;15.10;;;;;;;3.19;100.00;98098.00;5103036;28;20440;-73
2022/11/22 01:56:54;;;;;;;24.33;14.50;;;;;;;3.25;100.00;98104.50;5084233;28;20492;-75
2022/11/22 01:59:24;;;;;;;21.20;14.83;;;;;;;3.26;100.00;98107.94;5091715;28;20526;-74
2022/11/22 02:01:51;;;;;;;21.90;15.80;;;;;;;3.26;100.00;98100.84;5103170;28;20496;-74
2022/11/22 02:04:21;;;;;;;29.63;15.73;;;;;;;3.25;100.00;98106.31;5104034;28;21014;-75
2022/11/22 02:06:51;;;;;;;20.53;15.20;;;;;;;3.26;100.00;98103.50;5104143;28;20471;-74
2022/11/22 02:09:18;;;;;;;20.93;14.50;;;;;;;3.24;100.00;98107.28;5099753;28;20524;-75
2022/11/22 02:11:48;;;;;;;22.20;14.43;;;;;;;3.24;100.00;98105.44;5101957;28;20558;-75
2022/11/22 02:14:17;;;;;;;18.17;13.90;;;;;;;3.32;100.00;98102.09;5100620;28;20486;-75
2022/11/22 02:16:45;;;;;;;22.13;13.80;;;;;;;3.31;100.00;98111.81;5097737;28;20547;-75
2022/11/22 02:19:16;;;;;;;18.10;12.97;;;;;;;3.39;100.00;98108.44;5083215;28;20516;-74
2022/11/22 02:21:43;;;;;;;21.40;13.80;;;;;;;3.32;100.00;98110.00;5083038;28;20463;-73
2022/11/22 02:24:14;;;;;;;24.50;14.37;;;;;;;3.44;100.00;98111.47;5085631;28;20461;-75
2022/11/22 02:26:42;;;;;;;17.60;14.00;;;;;;;3.48;100.00;98099.63;5082912;28;20488;-75
2022/11/22 02:29:09;;;;;;;18.70;13.83;;;;;;;3.48;100.00;98096.16;5082844;28;20960;-71
2022/11/22 02:31:39;;;;;;;19.57;13.17;;;;;;;3.47;100.00;98089.19;5086852;28;20496;-74
2022/11/22 02:34:06;;;;;;;17.00;12.13;;;;;;;3.43;100.00;98085.19;5084498;28;20504;-73
2022/11/22 02:36:36;;;;;;;14.00;11.47;;;;;;;3.46;100.00;98079.63;5096658;28;20488;-74
2022/11/22 02:39:03;;;;;;;16.47;12.77;;;;;;;3.47;100.00;98089.19;5094995;28;21032;-70
2022/11/22 02:41:29;;;;;;;16.80;12.50;;;;;;;3.51;100.00;98096.69;5100640;28;20495;-75
2022/11/22 02:43:57;;;;;;;17.93;12.30;;;;;;;3.57;100.00;98097.91;5103329;28;20933;-75
2022/11/22 02:46:24;;;;;;;16.97;12.57;;;;;;;3.63;100.00;98099.09;5102931;28;20498;-72
2022/11/22 02:48:51;;;;;;;18.13;12.33;;;;;;;3.67;100.00;98103.94;5098394;28;20493;-72
2022/11/22 02:51:18;;;;;;;17.20;12.13;;;;;;;3.57;100.00;98096.06;5082980;28;20518;-74
2022/11/22 02:53:45;;;;;;;16.60;12.10;;;;;;;3.64;100.00;98085.75;5084146;28;20429;-76
2022/11/22 02:56:12;;;;;;;16.33;11.73;;;;;;;3.70;100.00;98081.69;5082213;28;20984;-73
2022/11/22 02:58:39;;;;;;;16.80;11.37;;;;;;;3.74;100.00;98086.50;5083365;28;20477;-76
2022/11/22 03:01:07;;;;;;;15.23;10.40;;;;;;;3.76;100.00;98081.06;5091165;28;20551;-77
2022/11/22 03:03:33;;;;;;;17.90;12.13;;;;;;;3.77;100.00;98080.09;5083690;28;20505;-75
2022/11/22 03:06:01;;;;;;;13.93;10.30;;;;;;;3.74;100.00;98090.97;5097029;28;21057;-76
2022/11/22 03:08:27;;;;;;;17.50;10.60;;;;;;;3.76;100.00;98089.81;5098473;28;20946;-77
2022/11/22 03:10:57;;;;;;;15.70;11.23;;;;;;;3.89;100.00;98092.13;5082590;28;20479;-76
2022/11/22 03:13:23;;;;;;;11.50;8.67;;;;;;;3.87;100.00;98087.94;5101289;28;20449;-73
2022/11/22 03:15:50;;;;;;;14.53;10.10;;;;;;;3.94;100.00;98084.56;5093308;28;20570;-75
2022/11/22 03:18:18;;;;;;;12.70;9.33;;;;;;;3.89;100.00;98076.25;5094388;28;20461;-75
2022/11/22 03:20:44;;;;;;;14.40;11.20;;;;;;;3.99;100.00;98077.97;5098835;28;20471;-74
2022/11/22 03:23:11;;;;;;;12.77;10.13;;;;;;;3.94;100.00;98083.72;5102506;28;20516;-74
2022/11/22 03:25:38;;;;;;;15.23;9.40;;;;;;;3.79;100.00;98091.34;5095489;28;20503;-75
2022/11/22 03:28:05;;;;;;;12.20;9.50;;;;;;;3.81;100.00;98085.91;5083274;28;20448;-75
2022/11/22 03:30:31;;;;;;;11.40;8.47;;;;;;;3.85;100.00;98089.91;5098584;28;20467;-71
2022/11/22 03:32:58;;;;;;;11.00;8.57;;;;;;;3.90;100.00;98095.56;5102007;28;20486;-75
2022/11/22 03:35:26;;;;;;;12.50;9.30;;;;;;;3.93;100.00;98088.16;5101442;28;20443;-74
2022/11/22 03:37:53;;;;;;;13.00;9.50;;;;;;;3.99;100.00;98091.19;5102137;28;20479;-74
2022/11/22 03:40:19;;;;;;;13.33;7.97;;;;;;;3.95;100.00;98094.13;5086407;28;20511;-74
2022/11/22 03:42:46;;;;;;;15.30;9.47;;;;;;;3.93;100.00;98090.81;5083544;28;20458;-72
2022/11/22 03:45:13;;;;;;;8.43;7.53;;;;;;;3.96;100.00;98106.38;5099844;28;20464;-71
2022/11/22 03:47:39;;;;;;;11.87;7.47;;;;;;;3.96;100.00;98102.91;5101096;28;20467;-74
2022/11/22 03:50:06;;;;;;;10.40;6.90;;;;;;;4.01;100.00;98105.09;5092861;28;20905;-73
2022/11/22 03:52:34;;;;;;;11.03;7.60;;;;;;;4.13;100.00;98106.50;5101658;28;20488;-71
2022/11/22 03:55:01;;;;;;;10.43;6.47;;;;;;;4.12;100.00;98110.16;5086704;28;20520;-74
2022/11/22 03:57:28;;;;;;;9.90;6.07;;;;;;;4.13;100.00;98112.66;5081306;28;20505;-72
2022/11/22 03:59:54;;;;;;;9.57;6.20;;;;;;;4.16;100.00;98103.56;5081499;28;20488;-74
2022/11/22 04:02:21;;;;;;;9.43;5.20;;;;;;;4.17;100.00;98112.31;5101038;28;20475;-73
2022/11/22 04:04:47;;;;;;;7.33;5.63;;;;;;;4.25;100.00;98109.75;5090269;28;20516;-74
2022/11/22 04:07:14;;;;;;;7.70;5.50;;;;;;;4.28;100.00;98109.44;5081544;28;20508;-73
2022/11/22 04:09:42;;;;;;;6.93;5.13;;;;;;;4.28;100.00;98114.75;5099049;28;20939;-70
2022/11/22 04:12:09;;;;;;;9.33;6.03;;;;;;;4.31;100.00;98111.81;5100920;28;20550;-74
2022/11/22 04:22:40;;;;;;;6.67;5.60;;;;;;;4.45;100.00;98111.25;5098403;28;20501;-73
2022/11/22 04:25:14;;;;;;;9.50;5.67;;;;;;;4.44;100.00;98112.22;5082448;28;20489;-74
2022/11/22 04:27:41;;;;;;;8.03;5.67;;;;;;;4.45;100.00;98113.06;5099572;28;20473;-74
2022/11/22 04:30:08;;;;;;;9.40;5.67;;;;;;;4.45;100.00;98118.34;5081514;28;20488;-74
2022/11/22 04:35:18;;;;;;;5.97;4.90;;;;;;;4.44;100.00;98117.50;5082727;28;20452;-74
2022/11/22 04:37:50;;;;;;;8.00;6.30;;;;;;;4.41;100.00;98130.22;5101137;28;20447;-74
2022/11/22 04:40:18;;;;;;;7.10;5.60;;;;;;;4.36;100.00;98133.34;5099691;28;20487;-68
2022/11/22 04:45:29;;;;;;;9.17;6.00;;;;;;;4.39;100.00;98137.47;5087893;28;20895;-73
2022/11/22 04:47:58;;;;;;;5.53;4.87;;;;;;;4.47;100.00;98142.84;5080979;28;20496;-70
2022/11/22 04:53:14;;;;;;;6.57;4.80;;;;;;;4.46;100.00;98144.66;5099074;28;20853;-73
2022/11/22 04:55:42;;;;;;;8.60;5.17;;;;;;;4.53;100.00;98143.06;5086901;28;20471;-74
2022/11/22 04:58:09;;;;;;;5.87;4.63;;;;;;;4.53;100.00;98148.34;5098849;28;20495;-74
2022/11/22 05:00:35;;;;;;;10.60;6.73;;;;;;;4.54;100.00;98146.53;5066328;28;20527;-74
2022/11/22 05:03:03;;;;;;;6.20;4.30;;;;;;;4.60;100.00;98148.56;5080390;28;20475;-70
2022/11/22 05:05:30;;;;;;;5.40;4.90;;;;;;;4.70;100.00;98136.06;5096533;28;20542;-75
2022/11/22 05:07:58;;;;;;;7.07;5.03;;;;;;;4.73;100.00;98150.78;5096478;28;20470;-71
2022/11/22 05:10:25;;;;;;;5.47;4.93;;;;;;;4.67;100.00;98143.47;5075154;28;20487;-70
2022/11/22 05:12:53;;;;;;;5.10;4.53;;;;;;;4.64;100.00;98159.69;5081063;28;21001;-74
2022/11/22 05:15:20;;;;;;;7.27;4.70;;;;;;;4.78;100.00;98153.81;5091549;28;20484;-74
2022/11/22 05:17:46;;;;;;;8.97;4.77;;;;;;;4.76;100.00;98163.72;5090989;28;20453;-73
2022/11/22 05:20:13;;;;;;;6.63;5.30;;;;;;;4.75;100.00;98166.53;5079489;28;20508;-75
2022/11/22 05:25:24;;;;;;;6.20;4.77;;;;;;;4.80;100.00;98166.91;5077451;28;20446;-71
2022/11/22 05:27:54;;;;;;;6.50;5.20;;;;;;;4.71;100.00;98163.38;5077174;28;20443;-76
2022/11/22 05:30:21;;;;;;;6.43;4.77;;;;;;;4.80;100.00;98161.59;5072080;28;20485;-74
2022/11/22 05:32:48;;;;;;;6.47;5.57;;;;;;;4.74;100.00;98163.06;5093319;28;20487;-72
2022/11/22 05:35:14;;;;;;;7.70;4.80;;;;;;;4.81;100.00;98163.25;5079420;28;20479;-65
2022/11/22 05:37:43;;;;;;;5.60;4.97;;;;;;;4.76;100.00;98161.09;5085625;28;20471;-65
2022/11/22 05:40:11;;;;;;;5.43;4.80;;;;;;;4.76;100.00;98150.50;5067322;28;20488;-74
2022/11/22 05:42:38;;;;;;;9.63;5.50;;;;;;;4.71;100.00;98152.78;5073141;28;20487;-73
2022/11/22 05:45:07;;;;;;;5.83;4.13;;;;;;;4.78;100.00;98160.94;5089137;28;20619;-73
2022/11/22 05:47:34;;;;;;;6.40;4.80;;;;;;;4.75;100.00;98161.22;5081977;28;20559;-74
2022/11/22 05:50:01;;;;;;;7.93;4.87;;;;;;;4.76;100.00;98160.25;5100813;28;20451;-71
2022/11/22 05:52:28;;;;;;;6.90;5.50;;;;;;;4.75;100.00;98150.66;5096257;28;20509;-71
2022/11/22 05:54:54;;;;;;;6.83;4.93;;;;;;;4.79;100.00;98163.44;5090927;28;20535;-73
2022/11/22 05:57:21;;;;;;;5.30;4.80;;;;;;;4.79;100.00;98155.47;5091098;28;20480;-74
2022/11/22 05:59:47;;;;;;;6.37;5.20;;;;;;;4.76;100.00;98153.13;5082670;28;21171;-74
2022/11/22 06:02:15;;;;;;;7.83;4.00;;;;;;;4.78;100.00;98153.81;5087331;28;20486;-74
2022/11/22 06:04:42;;;;;;;7.60;4.10;;;;;;;4.82;100.00;98157.78;5081835;28;20444;-75
2022/11/22 06:07:09;;;;;;;5.77;4.13;;;;;;;4.89;100.00;98156.19;5079100;28;20556;-70
2022/11/22 06:09:35;;;;;;;6.63;4.50;;;;;;;4.94;100.00;98165.50;5079984;28;20482;-73
2022/11/22 06:12:02;;;;;;;5.40;4.27;;;;;;;4.95;100.00;98169.78;5083015;28;20590;-74
2022/11/22 06:14:28;;;;;;;5.37;3.93;;;;;;;5.00;100.00;98159.56;5085014;28;20476;-74
2022/11/22 06:16:55;;;;;;;4.80;4.10;;;;;;;4.92;100.00;98165.66;5096049;28;20507;-73
2022/11/22 06:19:23;;;;;;;5.63;4.10;;;;;;;4.99;100.00;98165.84;5093625;28;20462;-74
2022/11/22 06:21:50;;;;;;;5.40;4.90;;;;;;;5.02;100.00;98165.56;5101123;28;20566;-74
2022/11/22 06:24:17;;;;;;;4.50;4.10;;;;;;;5.11;100.00;98169.09;5104439;28;20427;-70
2022/11/22 06:26:43;;;;;;;4.80;4.37;;;;;;;5.02;100.00;98168.19;5084099;28;20515;-72
2022/11/22 06:29:10;;;;;;;13.10;6.73;;;;;;;5.22;100.00;98171.44;5084669;28;20439;-72
2022/11/22 06:31:37;;;;;;;5.00;4.50;;;;;;;5.61;100.00;98178.91;5085339;28;20519;-72
2022/11/22 06:34:04;;;;;;;8.50;4.83;;;;;;;5.58;100.00;98176.59;5064403;28;20449;-71
2022/11/22 06:36:33;;;;;;;5.00;4.17;;;;;;;5.46;100.00;98183.97;5070600;28;20484;-72
2022/11/22 06:39:00;;;;;;;4.73;4.20;;;;;;;5.40;100.00;98195.19;5098803;28;20471;-70
2022/11/22 06:41:31;;;;;;;11.20;6.07;;;;;;;5.33;100.00;98197.69;5093662;28;20914;-66
2022/11/22 06:43:58;;;;;;;11.30;6.73;;;;;;;5.35;100.00;98202.81;5092322;28;20465;-65
2022/11/22 06:46:26;;;;;;;11.53;7.17;;;;;;;5.36;100.00;98197.34;5096288;28;20571;-65
2022/11/22 06:48:53;;;;;;;9.90;7.40;;;;;;;5.35;100.00;98208.13;5087095;28;20949;-65
2022/11/22 06:51:21;;;;;;;10.37;6.67;;;;;;;5.38;100.00;98213.94;5092209;28;20471;-65
2022/11/22 06:53:50;;;;;;;12.23;7.80;;;;;;;5.40;100.00;98214.59;5097144;28;20452;-70
2022/11/22 06:56:18;;;;;;;11.87;7.53;;;;;;;5.36;100.00;98207.94;5103178;28;20495;-69
2022/11/22 06:58:45;;;;;;;12.27;6.83;;;;;;;5.45;100.00;98209.66;5094368;28;20464;-69
2022/11/22 07:01:14;;;;;;;5.70;4.70;;;;;;;5.41;100.00;98223.38;5083107;28;20503;-69
2022/11/22 07:03:41;;;;;;;7.30;4.63;;;;;;;5.42;100.00;98227.69;5096961;28;20440;-68
2022/11/22 07:06:09;;;;;;;5.87;4.63;;;;;;;5.38;100.00;98239.59;5099044;28;20464;-69
2022/11/22 07:08:37;;;;;;;7.37;5.83;;;;;;;5.40;100.00;98238.44;5102533;28;20439;-69
2022/11/22 07:11:06;;;;;;;12.13;5.97;;;;;;;5.37;100.00;98246.72;5102380;28;20499;-69
2022/11/22 07:13:33;;;;;;;7.43;5.50;;;;;;;5.36;100.00;98244.22;5103507;28;20439;-69
2022/11/22 07:16:01;;;;;;;9.87;5.60;;;;;;;5.37;100.00;98245.88;5086086;28;20555;-68
2022/11/22 07:18:28;;;;;;;13.10;6.77;;;;;;;5.39;100.00;98246.56;5080792;28;20540;-68
2022/11/22 07:21:00;;;;;;;16.90;8.70;;;;;;;5.40;100.00;98251.69;5080872;28;20473;-68
2022/11/22 07:23:26;;;;;;;13.50;8.53;;;;;;;5.43;100.00;98255.84;5084039;28;20484;-69
2022/11/22 07:25:53;;;;;;;13.87;8.30;;;;;;;5.45;100.00;98259.16;5081464;28;20523;-69
2022/11/22 07:28:21;;;;;;;8.30;7.07;;;;;;;5.46;100.00;98251.06;5096113;28;20471;-68
2022/11/22 07:30:48;;;;;;;10.07;7.03;;;;;;;5.50;100.00;98256.88;5101358;28;20474;-68
2022/11/22 07:33:15;;;;;;;9.20;6.30;;;;;;;5.45;100.00;98253.88;5103089;28;20431;-69
2022/11/22 07:35:42;;;;;;;13.70;9.50;;;;;;;5.50;100.00;98258.69;5085484;28;20498;-68
2022/11/22 07:38:09;;;;;;;15.10;10.97;;;;;;;5.48;100.00;98261.50;5082270;28;20488;-68
2022/11/22 07:40:35;;;;;;;16.87;10.53;;;;;;;5.51;100.00;98269.16;5084564;28;20530;-68
2022/11/22 07:43:03;;;;;;;12.27;8.90;;;;;;;5.51;100.00;98266.50;5102404;28;20424;-69
2022/11/22 07:45:31;;;;;;;19.67;9.93;;;;;;;5.66;100.00;98272.88;5088056;28;20472;-69
2022/11/22 07:47:59;;;;;;;20.83;13.17;;;;;;;5.80;100.00;98283.91;5081445;28;20449;-68
2022/11/22 07:50:26;;;;;;;17.33;10.00;;;;;;;5.87;100.00;98278.75;5081330;28;20476;-69
2022/11/22 07:52:55;;;;;;;23.70;12.07;;;;;;;5.99;99.93;98270.41;5081563;28;20459;-69
2022/11/22 07:55:22;;;;;;;25.33;13.53;;;;;;;6.16;98.43;98278.41;5087512;28;20543;-70
2022/11/22 07:57:48;;;;;;;17.20;10.50;;;;;;;6.16;97.77;98289.88;5101946;28;20459;-70
2022/11/22 08:00:16;;;;;;;15.13;8.70;;;;;;;6.17;97.30;98285.38;5099647;28;20564;-69
2022/11/22 08:02:44;;;;;;;11.13;7.57;;;;;;;6.37;96.68;98291.22;5101585;28;20497;-70
2022/11/22 08:05:10;;;;;;;10.40;5.13;;;;;;;6.36;96.47;98292.25;5102013;28;20946;-69
2022/11/22 08:07:37;;;;;;;8.73;4.33;;;;;;;6.43;95.87;98290.59;5083743;28;20494;-69
2022/11/22 08:10:04;;;;;;;7.97;3.77;;;;;;;6.47;95.31;98291.91;5081150;28;20499;-70
2022/11/22 08:12:31;;;;;;;5.97;3.43;;;;;;;6.83;94.04;98285.53;5079828;28;20610;-69
2022/11/22 08:14:58;;;;;;;13.43;3.97;;;;;;;7.42;92.85;98285.31;5060587;28;20457;-70
2022/11/22 08:17:24;;;;;;;10.03;3.47;;;;;;;7.54;89.99;98286.63;5076228;28;20479;-70
2022/11/22 08:19:52;;;;;;;10.23;3.80;;;;;;;7.92;88.25;98278.88;5092575;28;20507;-70
2022/11/22 08:22:22;;;;;;;5.23;3.00;;;;;;;8.51;85.10;98288.28;5078008;28;20536;-68
2022/11/22 08:24:49;;;;;;;4.77;2.93;;;;;;;9.17;82.39;98280.63;5080218;28;20440;-68
2022/11/22 08:27:15;;;;;;;13.73;3.90;;;;;;;9.88;79.02;98290.94;5080361;28;20483;-68
2022/11/22 08:29:42;;;;;;;9.40;3.63;;;;;;;10.16;75.98;98291.91;5079856;28;20456;-69
2022/11/22 08:32:09;;;;;;;7.40;3.63;;;;;;;10.96;73.51;98288.50;5070816;28;20510;-70
2022/11/22 08:34:35;;;;;;;6.60;3.27;;;;;;;11.52;69.26;98288.53;5079363;28;20513;-69
2022/11/22 08:37:03;;;;;;;7.43;3.33;;;;;;;11.73;68.32;98290.31;5064709;28;21087;-68
2022/11/22 08:39:30;;;;;;;8.33;2.90;;;;;;;11.46;67.74;98297.38;5093194;28;20467;-69
2022/11/22 08:41:57;;;;;;;6.77;2.10;;;;;;;10.74;69.93;98304.50;5097564;28;20582;-68
2022/11/22 08:44:23;;;;;;;7.17;2.33;;;;;;;10.09;72.14;98291.00;5079564;28;20512;-68
2022/11/22 08:46:50;;;;;;;7.97;2.60;;;;;;;10.37;71.93;98298.34;5089332;28;20503;-70
2022/11/22 08:49:17;;;;;;;7.47;3.27;;;;;;;11.09;69.30;98293.94;5099328;28;20474;-70
2022/11/22 08:51:45;;;;;;;5.07;1.70;;;;;;;11.24;66.52;98289.34;5098660;28;20479;-69
2022/11/22 08:54:15;;;;;;;5.60;2.00;;;;;;;10.69;67.83;98293.56;5100077;28;20447;-69
2022/11/22 08:56:41;;;;;;;6.20;2.70;;;;;;;11.26;66.76;98289.16;5099814;28;21093;-69
2022/11/22 08:59:08;;;;;;;10.03;4.90;;;;;;;11.07;67.68;98290.66;5059829;28;20499;-68
2022/11/22 09:01:34;;;;;;;11.57;6.10;;;;;;;11.30;66.16;98304.66;5070193;28;20538;-68
2022/11/22 09:04:01;;;;;;;13.53;5.33;;;;;;;11.26;66.34;98297.19;5080262;28;20429;-69
2022/11/22 09:06:28;;;;;;;5.87;3.20;;;;;;;12.09;64.13;98292.00;5079586;28;20472;-69
2022/11/22 09:08:54;;;;;;;8.40;3.30;;;;;;;11.74;63.25;98297.34;5087527;28;20508;-70
2022/11/22 09:11:22;;;;;;;8.30;3.03;;;;;;;11.35;65.81;98303.22;5080549;28;20974;-69
2022/11/22 09:13:49;;;;;;;10.87;3.17;;;;;;;10.12;68.18;98290.63;5079684;28;20532;-68
2022/11/22 09:16:17;;;;;;;5.67;2.53;;;;;;;9.90;72.50;98302.25;5084186;28;20578;-69
2022/11/22 09:18:44;;;;;;;5.87;1.97;;;;;;;10.30;70.17;98302.75;5099835;28;20431;-69
2022/11/22 09:21:14;;;;;;;8.10;2.90;;;;;;;10.26;69.86;98315.66;5098776;28;20499;-70
2022/11/22 09:23:44;;;;;;;6.20;2.80;;;;;;;11.25;65.00;98315.09;5094682;28;20486;-69
2022/11/22 09:26:12;;;;;;;7.17;1.83;;;;;;;11.80;63.31;98319.81;5079368;28;21129;-70
2022/11/22 09:28:40;;;;;;;4.30;2.20;;;;;;;13.08;60.54;98325.53;5098259;28;20444;-70
2022/11/22 09:31:08;;;;;;;4.97;2.27;;;;;;;13.91;56.77;98324.31;5097300;28;20514;-70
2022/11/22 09:33:37;;;;;;;8.07;2.30;;;;;;;13.71;55.62;98324.31;5094503;28;20923;-70
2022/11/22 09:36:04;;;;;;;5.60;2.37;;;;;;;13.56;56.52;98330.75;5080335;28;20523;-70
2022/11/22 09:38:32;;;;;;;5.70;2.30;;;;;;;14.62;52.98;98323.50;5085762;28;20433;-76
2022/11/22 09:40:59;;;;;;;7.47;2.33;;;;;;;13.28;55.68;98330.06;5090317;28;20479;-77
2022/11/22 09:43:34;;;;;;;5.23;2.17;;;;;;;14.06;53.93;98332.13;5077525;28;20440;-76
2022/11/22 09:46:11;;;;;;;5.97;2.23;;;;;;;14.09;53.65;98334.41;5079877;28;20511;-76
2022/11/22 09:48:48;;;;;;;8.10;2.60;;;;;;;14.50;52.25;98336.75;5079460;28;20463;-78
2022/11/22 09:51:17;;;;;;;7.87;2.77;;;;;;;12.93;56.58;98340.97;5084100;28;20469;-78
2022/11/22 09:53:48;;;;;;;8.30;2.30;;;;;;;12.55;57.80;98339.63;5080791;28;20462;-70
2022/11/22 09:56:16;;;;;;;10.30;2.07;;;;;;;12.08;58.69;98340.41;5078839;28;21057;-75
2022/11/22 09:58:46;;;;;;;5.17;2.00;;;;;;;12.16;58.27;98330.38;5082188;28;20432;-76
2022/11/22 10:01:16;;;;;;;12.20;2.10;;;;;;;12.75;56.30;98341.53;5075882;28;20473;-72
2022/11/22 10:03:47;;;;;;;6.43;2.13;;;;;;;13.24;54.25;98335.03;5088848;28;20465;-74
2022/11/22 10:06:18;;;;;;;7.60;2.40;;;;;;;13.71;53.21;98341.28;5080691;28;20903;-73
2022/11/22 10:08:52;;;;;;;5.10;1.90;;;;;;;13.84;52.17;98331.56;5081156;28;20501;-74
2022/11/22 10:11:24;;;;;;;10.50;2.00;;;;;;;14.52;50.79;98343.78;5080490;28;20463;-74
2022/11/22 10:13:52;;;;;;;4.23;2.00;;;;;;;14.26;50.62;98338.28;5082681;28;20457;-74
2022/11/22 10:16:23;;;;;;;8.90;2.37;;;;;;;14.80;49.87;98349.66;5082120;28;20473;-74
2022/11/22 10:18:54;;;;;;;7.57;2.80;;;;;;;14.16;51.11;98345.94;5083224;28;20438;-74
2022/11/22 10:21:21;;;;;;;9.43;2.23;;;;;;;13.58;52.83;98338.59;5077251;28;20487;-74
2022/11/22 10:23:48;;;;;;;7.57;1.77;;;;;;;13.24;54.94;98344.94;5083696;28;20444;-74
2022/11/22 10:26:22;;;;;;;8.87;2.07;;;;;;;14.35;52.21;98338.06;5084531;28;20479;-75
2022/11/22 10:29:00;;;;;;;5.97;1.90;;;;;;;13.55;51.62;98329.09;5081933;28;20455;-72
2022/11/22 10:31:31;;;;;;;7.70;2.00;;;;;;;14.55;51.02;98333.44;5081566;28;20483;-77
2022/11/22 10:34:03;;;;;;;5.93;2.20;;;;;;;14.88;48.85;98327.91;5083172;28;20437;-77
2022/11/22 10:36:36;;;;;;;10.30;2.37;;;;;;;14.06;50.57;98316.00;5085563;28;20548;-76
2022/11/22 10:39:12;;;;;;;5.87;1.77;;;;;;;14.64;48.78;98328.66;5091287;28;20443;-77
2022/11/22 10:41:45;;;;;;;6.40;2.17;;;;;;;14.36;49.46;98320.91;5091709;28;21016;-75
2022/11/22 10:44:20;;;;;;;8.00;2.30;;;;;;;14.75;50.08;98322.59;5090145;28;20492;-72
2022/11/22 10:46:58;;;;;;;6.17;2.40;;;;;;;15.65;46.53;98318.84;5100202;28;20476;-73
2022/11/22 10:49:41;;;;;;;6.17;1.87;;;;;;;15.38;47.17;98312.84;5089773;28;20993;-74
2022/11/22 10:52:15;;;;;;;6.43;2.30;;;;;;;15.72;45.68;98321.50;5082367;28;20494;-76
2022/11/22 10:54:47;;;;;;;7.80;2.43;;;;;;;15.48;46.04;98317.75;5083188;28;20463;-75
2022/11/22 10:57:18;;;;;;;8.03;1.90;;;;;;;15.84;44.62;98316.25;5081576;28;21017;-68
2022/11/22 10:59:55;;;;;;;6.20;1.67;;;;;;;14.75;45.78;98327.16;5082036;28;20451;-75
2022/11/22 11:02:36;;;;;;;6.27;2.00;;;;;;;13.59;49.67;98316.06;5090839;28;20473;-72
2022/11/22 11:05:06;;;;;;;5.43;2.17;;;;;;;13.95;50.01;98306.72;5082378;28;20485;-74
2022/11/22 11:07:34;;;;;;;8.50;2.23;;;;;;;14.32;48.53;98313.25;5081672;28;20468;-72
2022/11/22 11:10:04;;;;;;;5.97;2.97;;;;;;;15.71;45.56;98301.81;5094118;28;20477;-76
2022/11/22 11:12:40;;;;;;;6.23;3.30;;;;;;;14.78;46.97;98315.97;5081347;28;20515;-76
2022/11/22 11:15:15;;;;;;;7.83;2.13;;;;;;;15.60;46.41;98303.34;5081252;28;20457;-75
2022/11/22 11:17:45;;;;;;;5.33;1.57;;;;;;;14.09;46.96;98305.66;5084666;28;21042;-73
2022/11/22 11:20:16;;;;;;;5.30;1.90;;;;;;;14.00;47.76;98301.56;5080615;28;20538;-72
2022/11/22 11:22:43;;;;;;;5.20;1.47;;;;;;;14.33;47.35;98303.31;5095230;28;20575;-75
2022/11/22 11:25:30;;;;;;;6.83;1.70;;;;;;;14.32;46.42;98297.13;5088031;28;20470;-75
2022/11/22 11:27:58;;;;;;;4.73;1.40;;;;;;;12.92;48.26;98301.78;5094376;28;21003;-76
2022/11/22 11:30:25;;;;;;;9.30;2.63;;;;;;;12.85;49.57;98295.59;5082630;28;20488;-72
2022/11/22 11:32:55;;;;;;;8.17;1.80;;;;;;;13.85;47.06;98292.91;5061631;28;20506;-75
2022/11/22 11:35:24;;;;;;;7.00;2.00;;;;;;;13.31;47.63;98292.94;5076153;28;20444;-74
2022/11/22 11:37:51;;;;;;;6.80;1.73;;;;;;;13.00;47.64;98285.47;5081253;28;20472;-74
2022/11/22 11:40:28;;;;;;;4.00;1.53;;;;;;;12.58;48.21;98280.22;5098339;28;20476;-74
2022/11/22 11:43:15;;;;;;;5.80;1.50;;;;;;;12.40;49.96;98277.31;5061677;28;21011;-73
2022/11/22 11:45:43;;;;;;;3.33;1.50;;;;;;;12.07;50.26;98280.66;5086318;28;20467;-74
2022/11/22 11:48:26;;;;;;;7.07;2.33;;;;;;;12.53;49.38;98276.50;5094585;28;20950;-74
2022/11/22 11:50:53;;;;;;;3.73;1.50;;;;;;;12.62;47.53;98260.06;5080117;28;20564;-75